createdAt,value
2023-04-04T00:01:34.458Z,0.03
2023-04-04T00:04:19.824Z,0.02
2023-04-04T00:07:05.055Z,0.01
2023-04-04T00:09:50.963Z,-0.01
2023-04-04T00:12:36.678Z,-0.01
2023-04-04T00:15:22.225Z,-0.03
2023-04-04T00:18:07.542Z,-0.03
2023-04-04T00:20:52.705Z,-0.06
2023-04-04T00:23:38.052Z,-0.06
2023-04-04T00:26:24.396Z,-0.07
2023-04-04T00:29:11.626Z,-0.08
2023-04-04T00:31:58.139Z,-0.08
2023-04-04T00:34:43.487Z,-0.08
2023-04-04T00:37:31.244Z,-0.10
2023-04-04T00:40:16.591Z,-0.09
2023-04-04T00:43:02.183Z,-0.10
2023-04-04T00:45:48.167Z,-0.09
2023-04-04T00:48:34.030Z,-0.10
2023-04-04T00:51:19.850Z,-0.11
2023-04-04T00:54:05.527Z,-0.10
2023-04-04T00:56:55.438Z,-0.10
2023-04-04T00:59:41.967Z,-0.11
2023-04-04T01:02:27.502Z,-0.13
2023-04-04T01:05:15.608Z,-0.14
2023-04-04T01:08:01.922Z,-0.15
2023-04-04T01:10:47.519Z,-0.16
2023-04-04T01:13:33.929Z,-0.19
2023-04-04T01:16:20.542Z,-0.21
2023-04-04T01:19:11.639Z,-0.23
2023-04-04T01:21:59.648Z,-0.25
2023-04-04T01:24:47.164Z,-0.26
2023-04-04T01:27:33.682Z,-0.28
2023-04-04T01:30:30.936Z,-0.30
2023-04-04T01:33:25.724Z,-0.32
2023-04-04T01:36:25.942Z,-0.34
2023-04-04T01:39:14.658Z,-0.34
2023-04-04T01:42:02.932Z,-0.36
2023-04-04T01:44:56.152Z,-0.35
2023-04-04T01:47:43.771Z,-0.35
2023-04-04T01:50:34.604Z,-0.35
2023-04-04T01:53:20.042Z,-0.34
2023-04-04T01:56:05.627Z,-0.34
2023-04-04T01:58:53.850Z,-0.35
2023-04-04T02:01:39.721Z,-0.36
2023-04-04T02:04:26.032Z,-0.38
2023-04-04T02:07:11.491Z,-0.38
2023-04-04T02:09:56.730Z,-0.39
2023-04-04T02:12:42.158Z,-0.40
2023-04-04T02:15:27.902Z,-0.40
2023-04-04T02:18:13.944Z,-0.39
2023-04-04T02:20:59.307Z,-0.40
2023-04-04T02:23:47.612Z,-0.39
2023-04-04T02:26:33.127Z,-0.40
2023-04-04T02:29:19.592Z,-0.42
2023-04-04T02:32:05.007Z,-0.43
2023-04-04T02:34:51.250Z,-0.44
2023-04-04T02:37:36.764Z,-0.46
2023-04-04T02:40:26.360Z,-0.45
2023-04-04T02:43:12.041Z,-0.46
2023-04-04T02:45:59.680Z,-0.47
2023-04-04T02:48:46.322Z,-0.47
2023-04-04T02:51:33.602Z,-0.49
2023-04-04T02:54:19.783Z,-0.49
2023-04-04T02:57:06.021Z,-0.50
2023-04-04T02:59:51.842Z,-0.50
2023-04-04T03:02:37.445Z,-0.51
2023-04-04T03:05:27.637Z,-0.54
2023-04-04T03:08:13.192Z,-0.55
2023-04-04T03:10:58.500Z,-0.60
2023-04-04T03:13:44.235Z,-0.65
2023-04-04T03:16:29.693Z,-0.70
2023-04-04T03:19:16.306Z,-0.75
2023-04-04T03:22:01.908Z,-0.79
2023-04-04T03:24:49.238Z,-0.83
2023-04-04T03:27:34.853Z,-0.87
2023-04-04T03:30:20.551Z,-0.89
2023-04-04T03:33:10.064Z,-0.90
2023-04-04T03:35:56.717Z,-0.92
2023-04-04T03:38:41.872Z,-0.95
2023-04-04T03:41:28.742Z,-0.98
2023-04-04T03:44:14.206Z,-1.00
2023-04-04T03:46:59.530Z,-1.02
2023-04-04T03:49:45.528Z,-1.03
2023-04-04T03:52:31.927Z,-1.05
2023-04-04T03:55:17.314Z,-1.04
2023-04-04T03:58:02.602Z,-1.03
2023-04-04T04:00:47.906Z,-1.03
2023-04-04T04:03:33.289Z,-1.01
2023-04-04T04:06:19.201Z,-0.99
2023-04-04T04:09:04.796Z,-0.99
2023-04-04T04:11:50.114Z,-0.98
2023-04-04T04:14:35.544Z,-0.98
2023-04-04T04:17:22.435Z,-0.97
2023-04-04T04:20:09.568Z,-0.95
2023-04-04T04:23:00.226Z,-0.97
2023-04-04T04:25:47.919Z,-0.94
2023-04-04T04:28:37.106Z,-0.94
2023-04-04T04:31:28.621Z,-0.93
2023-04-04T04:34:15.468Z,-0.92
2023-04-04T04:37:01.301Z,-0.91
2023-04-04T04:39:54.655Z,-0.90
2023-04-04T04:43:01.007Z,-0.89
2023-04-04T04:45:47.074Z,-0.90
2023-04-04T04:48:32.991Z,-0.89
2023-04-04T04:51:19.255Z,-0.88
2023-04-04T04:54:11.141Z,-0.87
2023-04-04T04:56:58.184Z,-0.86
2023-04-04T04:59:43.997Z,-0.85
2023-04-04T05:02:31.492Z,-0.85
2023-04-04T05:05:17.712Z,-0.85
2023-04-04T05:08:04.288Z,-0.82
2023-04-04T05:10:50.776Z,-0.81
2023-04-04T05:13:37.548Z,-0.82
2023-04-04T05:16:23.445Z,-0.79
2023-04-04T05:19:10.798Z,-0.78
2023-04-04T05:22:03.151Z,-0.75
2023-04-04T05:24:56.718Z,-0.74
2023-04-04T05:27:48.699Z,-0.71
2023-04-04T05:30:37.559Z,-0.69
2023-04-04T05:33:49.441Z,-0.66
2023-04-04T05:36:45.688Z,-0.64
2023-04-04T05:39:31.490Z,-0.61
2023-04-04T05:42:23.912Z,-0.58
2023-04-04T05:45:12.980Z,-0.54
2023-04-04T05:47:58.546Z,-0.53
2023-04-04T05:50:47.280Z,-0.49
2023-04-04T05:53:33.746Z,-0.45
2023-04-04T05:56:21.969Z,-0.43
2023-04-04T05:59:07.771Z,-0.39
2023-04-04T06:02:00.104Z,-0.36
2023-04-04T06:04:45.988Z,-0.31
2023-04-04T06:07:36.308Z,-0.26
2023-04-04T06:10:21.763Z,-0.22
2023-04-04T06:13:08.058Z,-0.17
2023-04-04T06:15:54.108Z,-0.14
2023-04-04T06:18:39.900Z,-0.09
2023-04-04T06:21:25.607Z,-0.05
2023-04-04T06:24:11.314Z,0.01
2023-04-04T06:26:57.719Z,0.14
2023-04-04T06:29:45.626Z,0.30
2023-04-04T06:32:35.105Z,0.44
2023-04-04T06:35:22.463Z,0.52
2023-04-04T06:38:16.737Z,0.59
2023-04-04T06:41:02.154Z,0.69
2023-04-04T06:43:48.740Z,0.75
2023-04-04T06:46:37.424Z,0.85
2023-04-04T06:49:22.832Z,0.89
2023-04-04T06:52:08.809Z,0.92
2023-04-04T06:54:54.334Z,0.91
2023-04-04T06:57:39.511Z,0.93
2023-04-04T07:00:26.419Z,0.99
2023-04-04T07:03:11.837Z,1.03
2023-04-04T07:05:57.625Z,1.07
2023-04-04T07:08:43.470Z,1.16
2023-04-04T07:11:29.318Z,1.19
2023-04-04T07:14:14.802Z,1.24
2023-04-04T07:17:02.071Z,1.26
2023-04-04T07:19:49.227Z,1.32
2023-04-04T07:22:39.599Z,1.31
2023-04-04T07:25:25.199Z,1.30
2023-04-04T07:28:13.277Z,1.29
2023-04-04T07:31:00.894Z,1.31
2023-04-04T07:33:46.313Z,1.33
2023-04-04T07:36:31.648Z,1.33
2023-04-04T07:39:17.642Z,1.31
2023-04-04T07:42:03.236Z,1.32
2023-04-04T07:44:52.536Z,1.35
2023-04-04T07:47:38.122Z,1.42
2023-04-04T07:50:23.345Z,1.48
2023-04-04T07:53:08.495Z,1.51
2023-04-04T07:55:53.896Z,1.51
2023-04-04T07:58:39.312Z,1.57
2023-04-04T08:01:24.785Z,1.63
2023-04-04T08:04:10.502Z,1.62
2023-04-04T08:06:56.481Z,1.57
2023-04-04T08:09:45.010Z,1.57
2023-04-04T08:12:30.593Z,1.61
2023-04-04T08:15:16.395Z,1.62
2023-04-04T08:18:01.847Z,1.66
2023-04-04T08:20:47.074Z,1.68
2023-04-04T08:23:32.509Z,1.70
2023-04-04T08:26:17.747Z,1.70
2023-04-04T08:29:03.144Z,1.70
2023-04-04T08:31:49.053Z,1.65
2023-04-04T08:34:34.809Z,1.60
2023-04-04T08:37:19.988Z,1.63
2023-04-04T08:40:06.753Z,1.67
2023-04-04T08:42:53.383Z,1.79
2023-04-04T08:45:42.154Z,1.98
2023-04-04T08:48:30.356Z,2.10
2023-04-04T08:51:17.480Z,2.18
2023-04-04T08:54:03.664Z,2.16
2023-04-04T08:56:50.702Z,2.13
2023-04-04T08:59:37.942Z,2.09
2023-04-04T09:02:34.429Z,2.06
2023-04-04T09:05:20.477Z,2.05
2023-04-04T09:08:09.203Z,2.04
2023-04-04T09:10:54.938Z,2.04
2023-04-04T09:13:42.041Z,2.05
2023-04-04T09:16:27.501Z,2.06
2023-04-04T09:19:13.413Z,2.20
2023-04-04T09:21:58.672Z,2.40
2023-04-04T09:24:44.173Z,2.40
2023-04-04T09:27:29.563Z,2.44
2023-04-04T09:30:14.839Z,2.43
2023-04-04T09:33:07.331Z,2.47
2023-04-04T09:35:59.223Z,2.51
2023-04-04T09:38:45.588Z,2.60
2023-04-04T09:41:31.441Z,2.76
2023-04-04T09:44:17.387Z,2.89
2023-04-04T09:47:30.522Z,3.09
2023-04-04T09:50:25.454Z,3.36
2023-04-04T09:53:16.953Z,3.54
2023-04-04T09:56:03.411Z,3.62
2023-04-04T09:59:02.652Z,3.72
2023-04-04T10:01:51.169Z,3.74
2023-04-04T10:04:37.967Z,3.61
2023-04-04T10:07:27.025Z,3.52
2023-04-04T10:10:13.957Z,3.43
2023-04-04T10:12:59.200Z,3.43
2023-04-04T10:15:47.054Z,3.37
2023-04-04T10:18:36.618Z,3.33
2023-04-04T10:21:22.809Z,3.30
2023-04-04T10:24:10.118Z,3.26
2023-04-04T10:26:55.720Z,3.31
2023-04-04T10:29:41.567Z,3.43
2023-04-04T10:32:58.545Z,3.65
2023-04-04T10:35:47.849Z,3.88
2023-04-04T10:38:40.722Z,4.07
2023-04-04T10:41:30.582Z,4.08
2023-04-04T10:44:25.051Z,3.91
2023-04-04T10:47:23.844Z,3.90
2023-04-04T10:50:11.846Z,4.01
2023-04-04T10:52:59.870Z,4.23
2023-04-04T10:55:46.262Z,4.52
2023-04-04T10:58:32.018Z,4.85
2023-04-04T11:01:21.510Z,5.19
2023-04-04T11:04:22.334Z,5.26
2023-04-04T11:07:12.305Z,5.09
2023-04-04T11:10:01.229Z,4.92
2023-04-04T11:12:47.769Z,4.76
2023-04-04T11:15:45.779Z,4.62
2023-04-04T11:18:41.635Z,4.58
2023-04-04T11:21:32.209Z,4.63
2023-04-04T11:24:18.334Z,4.59
2023-04-04T11:27:07.728Z,4.54
2023-04-04T11:29:53.892Z,4.52
2023-04-04T11:32:50.174Z,4.50
2023-04-04T11:35:41.029Z,4.62
2023-04-04T11:38:29.383Z,4.68
2023-04-04T11:41:14.864Z,4.79
2023-04-04T11:44:09.076Z,4.76
2023-04-04T11:47:11.838Z,4.77
2023-04-04T11:50:00.652Z,4.78
2023-04-04T11:52:46.205Z,4.84
2023-04-04T11:55:32.163Z,4.88
2023-04-04T11:58:18.294Z,4.85
2023-04-04T12:01:04.909Z,4.85
2023-04-04T12:03:51.407Z,4.82
2023-04-04T12:06:40.225Z,4.76
2023-04-04T12:09:26.697Z,4.68
2023-04-04T12:12:18.462Z,4.66
2023-04-04T12:15:14.881Z,4.59
2023-04-04T12:18:06.551Z,4.57
2023-04-04T12:20:52.264Z,4.57
2023-04-04T12:23:37.668Z,4.64
2023-04-04T12:26:23.572Z,4.71
2023-04-04T12:29:10.010Z,4.82
2023-04-04T12:31:56.159Z,4.89
2023-04-04T12:34:47.060Z,4.96
2023-04-04T12:37:36.854Z,5.03
2023-04-04T12:40:22.216Z,5.00
2023-04-04T12:43:09.397Z,4.80
2023-04-04T12:45:57.033Z,4.64
2023-04-04T12:48:42.593Z,4.54
2023-04-04T12:51:33.720Z,4.46
2023-04-04T12:54:27.979Z,4.34
2023-04-04T12:57:34.193Z,4.31
2023-04-04T13:00:21.600Z,4.33
2023-04-04T13:03:08.274Z,4.39
2023-04-04T13:05:53.889Z,4.56
2023-04-04T13:08:50.003Z,4.75
2023-04-04T13:12:04.619Z,4.87
2023-04-04T13:15:00.757Z,5.05
2023-04-04T13:17:48.368Z,5.25
2023-04-04T13:20:34.108Z,5.28
2023-04-04T13:23:20.436Z,5.25
2023-04-04T13:26:08.048Z,5.20
2023-04-04T13:28:53.809Z,5.29
2023-04-04T13:31:39.816Z,5.55
2023-04-04T13:34:27.364Z,5.83
2023-04-04T13:37:13.210Z,5.88
2023-04-04T13:39:58.594Z,5.78
2023-04-04T13:42:44.178Z,5.66
2023-04-04T13:45:32.265Z,5.54
2023-04-04T13:48:17.863Z,5.43
2023-04-04T13:51:03.394Z,5.44
2023-04-04T13:53:49.019Z,5.49
2023-04-04T13:56:34.675Z,5.57
2023-04-04T13:59:20.047Z,5.75
2023-04-04T14:02:05.200Z,5.77
2023-04-04T14:04:50.570Z,5.84
2023-04-04T14:07:38.283Z,6.05
2023-04-04T14:10:23.917Z,6.46
2023-04-04T14:13:09.132Z,6.98
2023-04-04T14:15:54.407Z,7.27
2023-04-04T14:18:39.745Z,7.39
2023-04-04T14:21:25.880Z,7.00
2023-04-04T14:24:11.724Z,6.64
2023-04-04T14:26:57.461Z,6.38
2023-04-04T14:29:43.122Z,6.16
2023-04-04T14:32:28.792Z,6.06
2023-04-04T14:35:14.152Z,5.93
2023-04-04T14:37:59.544Z,5.91
2023-04-04T14:40:44.892Z,6.02
2023-04-04T14:43:30.891Z,6.97
2023-04-04T14:46:18.587Z,8.07
2023-04-04T14:49:05.778Z,9.07
2023-04-04T14:51:52.125Z,10.05
2023-04-04T14:54:37.687Z,10.52
2023-04-04T14:57:23.147Z,10.39
2023-04-04T15:00:09.377Z,9.92
2023-04-04T15:02:54.902Z,9.41
2023-04-04T15:05:41.486Z,8.91
2023-04-04T15:08:27.585Z,8.42
2023-04-04T15:11:13.907Z,8.09
2023-04-04T15:13:59.401Z,7.73
2023-04-04T15:16:44.709Z,7.32
2023-04-04T15:19:29.964Z,6.86
2023-04-04T15:22:15.534Z,6.48
2023-04-04T15:25:01.060Z,6.19
2023-04-04T15:27:46.396Z,5.95
2023-04-04T15:30:33.369Z,5.81
2023-04-04T15:33:18.506Z,5.70
2023-04-04T15:36:03.954Z,5.66
2023-04-04T15:38:49.341Z,5.71
2023-04-04T15:41:34.695Z,5.75
2023-04-04T15:44:20.221Z,5.74
2023-04-04T15:47:06.325Z,5.67
2023-04-04T15:49:52.027Z,5.59
2023-04-04T15:52:37.686Z,5.45
2023-04-04T15:55:23.776Z,5.33
2023-04-04T15:58:09.903Z,5.19
2023-04-04T16:00:56.066Z,5.07
2023-04-04T16:03:43.618Z,4.97
2023-04-04T16:06:31.282Z,4.87
2023-04-04T16:09:16.869Z,4.80
2023-04-04T16:12:02.485Z,4.73
2023-04-04T16:14:48.220Z,4.63
2023-04-04T16:17:33.818Z,4.50
2023-04-04T16:20:19.125Z,4.38
2023-04-04T16:23:04.485Z,4.23
2023-04-04T16:25:49.859Z,4.11
2023-04-04T16:28:35.583Z,4.00
2023-04-04T16:31:21.196Z,3.90
2023-04-04T16:34:06.694Z,3.79
2023-04-04T16:36:52.105Z,3.70
2023-04-04T16:39:37.405Z,3.62
2023-04-04T16:42:24.812Z,3.57
2023-04-04T16:45:11.027Z,3.52
2023-04-04T16:47:56.585Z,3.47
2023-04-04T16:50:42.263Z,3.43
2023-04-04T16:53:27.852Z,3.37
2023-04-04T16:56:13.370Z,3.34
2023-04-04T16:58:58.765Z,3.30
2023-04-04T17:01:44.192Z,3.28
2023-04-04T17:04:29.640Z,3.24
2023-04-04T17:07:15.350Z,3.19
2023-04-04T17:10:01.147Z,3.16
2023-04-04T17:12:46.634Z,3.13
2023-04-04T17:15:32.506Z,3.08
2023-04-04T17:18:18.159Z,3.02
2023-04-04T17:21:03.601Z,2.95
2023-04-04T17:23:49.141Z,2.87
2023-04-04T17:26:34.549Z,2.82
2023-04-04T17:29:26.431Z,2.72
2023-04-04T17:32:12.163Z,2.63
2023-04-04T17:34:57.875Z,2.55
2023-04-04T17:37:43.268Z,2.46
2023-04-04T17:40:28.913Z,2.38
2023-04-04T17:43:14.180Z,2.30
2023-04-04T17:46:00.691Z,2.22
2023-04-04T17:48:46.169Z,2.13
2023-04-04T17:51:32.003Z,2.01
2023-04-04T17:54:17.948Z,1.92
2023-04-04T17:57:03.577Z,1.82
2023-04-04T17:59:49.315Z,1.71
2023-04-04T18:02:34.694Z,1.56
2023-04-04T18:05:20.274Z,1.43
2023-04-04T18:08:06.222Z,1.26
2023-04-04T18:10:52.410Z,1.09
2023-04-04T18:13:37.901Z,0.93
2023-04-04T18:16:23.516Z,0.82
2023-04-04T18:19:10.136Z,0.67
2023-04-04T18:21:59.934Z,0.55
2023-04-04T18:24:47.582Z,0.45
2023-04-04T18:27:34.378Z,0.35
2023-04-04T18:30:20.393Z,0.26
2023-04-04T18:33:06.558Z,0.16
2023-04-04T18:35:52.910Z,0.03
2023-04-04T18:38:38.364Z,-0.07
2023-04-04T18:41:24.019Z,-0.15
2023-04-04T18:44:09.574Z,-0.23
2023-04-04T18:46:58.207Z,-0.30
2023-04-04T18:49:44.260Z,-0.40
2023-04-04T18:52:29.830Z,-0.55
2023-04-04T18:55:15.461Z,-0.69
2023-04-04T18:58:01.244Z,-0.78
2023-04-04T19:00:46.931Z,-0.87
2023-04-04T19:03:55.238Z,-0.98
2023-04-04T19:06:42.396Z,-1.07
2023-04-04T19:09:30.820Z,-1.15
2023-04-04T19:12:16.432Z,-1.21
2023-04-04T19:15:01.970Z,-1.32
2023-04-04T19:17:47.707Z,-1.41
2023-04-04T19:20:33.000Z,-1.45
2023-04-04T19:23:18.564Z,-1.47
2023-04-04T19:26:04.016Z,-1.50
2023-04-04T19:28:50.731Z,-1.53
2023-04-04T19:31:36.263Z,-1.57
2023-04-04T19:34:22.165Z,-1.59
2023-04-04T19:37:07.827Z,-1.67
2023-04-04T19:39:53.561Z,-1.74
2023-04-04T19:42:41.437Z,-1.78
2023-04-04T19:45:48.782Z,-1.83
2023-04-04T19:48:46.157Z,-1.85
2023-04-04T19:51:40.257Z,-1.90
2023-04-04T19:54:27.239Z,-1.99
2023-04-04T19:57:19.403Z,-2.05
2023-04-04T20:00:17.736Z,-2.14
2023-04-04T20:03:08.177Z,-2.20
2023-04-04T20:05:57.300Z,-2.22
2023-04-04T20:08:46.702Z,-2.27
2023-04-04T20:11:34.378Z,-2.28
2023-04-04T20:14:22.128Z,-2.31
2023-04-04T20:17:07.865Z,-2.35
2023-04-04T20:19:53.699Z,-2.38
2023-04-04T20:22:39.059Z,-2.39
2023-04-04T20:25:41.846Z,-2.41
2023-04-04T20:28:28.689Z,-2.43
2023-04-04T20:31:18.187Z,-2.54
2023-04-04T20:34:06.257Z,-2.63
2023-04-04T20:36:54.289Z,-2.69
2023-04-04T20:39:41.503Z,-2.71
2023-04-04T20:42:30.302Z,-2.74
2023-04-04T20:45:42.231Z,-2.75
2023-04-04T20:48:40.877Z,-2.75
2023-04-04T20:51:33.205Z,-2.81
2023-04-04T20:54:19.016Z,-2.89
2023-04-04T20:57:04.880Z,-2.96
2023-04-04T20:59:50.526Z,-2.97
2023-04-04T21:02:36.548Z,-2.97
2023-04-04T21:05:29.902Z,-2.96
2023-04-04T21:08:29.464Z,-3.01
2023-04-04T21:11:29.099Z,-3.04
2023-04-04T21:14:26.979Z,-3.11
2023-04-04T21:17:12.320Z,-3.12
2023-04-04T21:19:57.628Z,-3.13
2023-04-04T21:22:49.554Z,-3.16
2023-04-04T21:25:45.035Z,-3.18
2023-04-04T21:28:34.230Z,-3.22
2023-04-04T21:31:25.407Z,-3.24
2023-04-04T21:34:21.799Z,-3.28
2023-04-04T21:37:07.354Z,-3.35
2023-04-04T21:39:57.077Z,-3.42
2023-04-04T21:42:42.696Z,-3.45
2023-04-04T21:45:28.626Z,-3.46
2023-04-04T21:48:14.191Z,-3.48
2023-04-04T21:50:59.665Z,-3.49
2023-04-04T21:53:45.671Z,-3.52
2023-04-04T21:56:31.795Z,-3.58
2023-04-04T21:59:17.471Z,-3.61
2023-04-04T22:02:02.825Z,-3.64
2023-04-04T22:04:48.310Z,-3.65
2023-04-04T22:07:34.030Z,-3.69
2023-04-04T22:10:22.700Z,-3.71
2023-04-04T22:13:08.847Z,-3.73
2023-04-04T22:15:58.805Z,-3.74
2023-04-04T22:18:47.037Z,-3.78
2023-04-04T22:21:36.327Z,-3.81
2023-04-04T22:24:22.987Z,-3.82
2023-04-04T22:27:08.620Z,-3.85
2023-04-04T22:29:53.894Z,-3.89
2023-04-04T22:32:43.799Z,-3.98
2023-04-04T22:35:29.773Z,-4.00
2023-04-04T22:38:15.133Z,-4.03
2023-04-04T22:41:00.753Z,-4.04
2023-04-04T22:43:46.465Z,-4.05
2023-04-04T22:46:32.297Z,-4.11
2023-04-04T22:49:17.748Z,-4.12
2023-04-04T22:52:06.899Z,-4.15
2023-04-04T22:54:53.137Z,-4.17
2023-04-04T22:57:38.650Z,-4.21
2023-04-04T23:00:24.018Z,-4.23
2023-04-04T23:03:09.533Z,-4.24
2023-04-04T23:05:55.035Z,-4.25
2023-04-04T23:08:40.282Z,-4.26
2023-04-04T23:11:27.203Z,-4.31
2023-04-04T23:14:15.418Z,-4.36
2023-04-04T23:17:01.135Z,-4.39
2023-04-04T23:19:46.496Z,-4.38
2023-04-04T23:22:31.722Z,-4.37
2023-04-04T23:25:17.811Z,-4.39
2023-04-04T23:28:03.469Z,-4.42
2023-04-04T23:30:49.058Z,-4.43
2023-04-04T23:33:34.558Z,-4.44
2023-04-04T23:36:20.767Z,-4.46
2023-04-04T23:39:07.272Z,-4.48
2023-04-04T23:41:53.399Z,-4.52
2023-04-04T23:44:38.988Z,-4.54
2023-04-04T23:47:24.430Z,-4.55
2023-04-04T23:50:10.466Z,-4.56
2023-04-04T23:52:56.151Z,-4.58
2023-04-04T23:55:41.559Z,-4.62
2023-04-04T23:58:26.908Z,-4.64
